Time;durP1;ratioP1;P1;durP2;ratioP2;P2;SDS_P1;SDS_P2;PMS_P1;PMS_P2;Temp;Humidity;BMP_temperature;BMP_pressure;BME280_temperature;BME280_humidity;BME280_pressure;Samples;Min_cycle;Max_cycle;Signal;HPM_P1;HPM_P2
2023/04/13 00:01:46;;;;;;;9.80;5.50;;;7.80;97.60;;;;;;5085799;28;20478;-60
2023/04/13 00:04:12;;;;;;;11.20;5.43;;;7.80;97.50;;;;;;5087960;28;20757;-60
2023/04/13 00:06:41;;;;;;;14.43;6.63;;;8.90;98.00;;;;;;5083415;28;20481;-60
2023/04/13 00:09:08;;;;;;;9.80;5.10;;;7.80;97.30;;;;;;5074835;28;20502;-61
2023/04/13 00:11:35;;;;;;;11.00;5.83;;;7.70;97.00;;;;;;5081300;28;21093;-60
2023/04/13 00:14:01;;;;;;;17.03;7.13;;;7.80;97.30;;;;;;5082228;28;20483;-60
2023/04/13 00:16:30;;;;;;;11.27;6.40;;;7.80;97.00;;;;;;5086608;28;20476;-60
2023/04/13 00:18:57;;;;;;;19.33;8.80;;;7.80;96.80;;;;;;5087532;28;20479;-61
2023/04/13 00:21:24;;;;;;;23.93;4.73;;;7.80;96.90;;;;;;5075630;28;20480;-61
2023/04/13 00:23:52;;;;;;;14.00;6.93;;;7.80;97.10;;;;;;5073136;28;20876;-60
2023/04/13 00:26:20;;;;;;;15.20;5.67;;;7.80;97.20;;;;;;5069772;28;21072;-60
2023/04/13 00:28:47;;;;;;;18.53;6.83;;;7.70;97.20;;;;;;5074442;28;20485;-61
2023/04/13 00:31:14;;;;;;;13.70;5.43;;;7.60;97.60;;;;;;5072840;28;20973;-61
2023/04/13 00:33:41;;;;;;;11.20;5.27;;;7.60;97.80;;;;;;5086383;28;20478;-61
2023/04/13 00:36:08;;;;;;;13.90;5.40;;;7.70;97.80;;;;;;5086106;28;20477;-61
2023/04/13 00:38:35;;;;;;;13.13;6.30;;;7.60;97.80;;;;;;5056460;28;20494;-61
2023/04/13 00:41:04;;;;;;;11.33;5.93;;;7.60;97.80;;;;;;5065057;28;20808;-60
2023/04/13 00:43:30;;;;;;;13.97;4.40;;;7.50;97.90;;;;;;5086134;28;20481;-60
2023/04/13 00:45:57;;;;;;;9.90;5.50;;;7.40;97.90;;;;;;5082833;28;20913;-61
2023/04/13 00:48:24;;;;;;;14.37;7.53;;;7.50;98.10;;;;;;5083938;28;20505;-61
2023/04/13 00:50:51;;;;;;;13.43;4.93;;;7.40;97.80;;;;;;5063366;28;21041;-61
2023/04/13 00:53:19;;;;;;;9.07;4.80;;;7.40;98.00;;;;;;5087273;28;20516;-61
2023/04/13 00:55:47;;;;;;;8.63;5.00;;;7.40;97.70;;;;;;5083217;28;20484;-61
2023/04/13 00:58:15;;;;;;;15.83;4.33;;;7.40;97.90;;;;;;5082609;28;20485;-61
2023/04/13 01:00:42;;;;;;;12.87;5.70;;;7.50;97.90;;;;;;5078421;28;21135;-61
2023/04/13 01:03:09;;;;;;;7.27;3.30;;;7.50;98.20;;;;;;5066050;28;20486;-61
2023/04/13 01:05:41;;;;;;;12.07;4.07;;;7.50;97.90;;;;;;5064295;28;20490;-61
2023/04/13 01:08:17;;;;;;;10.23;5.80;;;7.60;97.80;;;;;;5070221;28;21003;-60
2023/04/13 01:10:50;;;;;;;8.63;4.80;;;7.70;97.80;;;;;;5084529;28;20480;-60
2023/04/13 01:13:21;;;;;;;10.00;5.40;;;7.70;97.30;;;;;;5070382;28;20489;-60
2023/04/13 01:15:57;;;;;;;13.07;6.63;;;7.80;97.50;;;;;;5075526;28;20489;-61
2023/04/13 01:18:26;;;;;;;11.53;5.93;;;7.80;97.50;;;;;;5086633;28;20512;-60
2023/04/13 01:20:54;;;;;;;14.20;6.27;;;7.90;97.30;;;;;;5087616;28;20474;-60
2023/04/13 01:23:30;;;;;;;10.43;4.17;;;7.90;96.90;;;;;;5075154;28;20550;-61
2023/04/13 01:25:59;;;;;;;17.80;8.53;;;8.00;97.20;;;;;;5077197;28;20500;-61
2023/04/13 01:28:28;;;;;;;10.27;5.43;;;8.00;97.10;;;;;;5067782;28;21005;-61
2023/04/13 01:30:59;;;;;;;16.37;8.03;;;8.00;96.90;;;;;;5074570;28;20487;-60
2023/04/13 01:33:28;;;;;;;14.60;7.23;;;7.90;96.70;;;;;;5068363;28;20486;-61
2023/04/13 01:35:56;;;;;;;16.20;6.40;;;8.00;96.90;;;;;;5080520;28;20480;-61
2023/04/13 01:38:24;;;;;;;10.87;5.57;;;7.90;96.90;;;;;;5088219;28;20488;-61
2023/04/13 01:40:51;;;;;;;20.80;8.90;;;8.00;96.90;;;;;;5062951;28;20603;-60
2023/04/13 01:43:19;;;;;;;16.97;5.10;;;8.00;96.90;;;;;;5073724;28;20492;-61
2023/04/13 01:45:53;;;;;;;11.83;6.63;;;8.00;97.00;;;;;;5060800;28;20483;-61
2023/04/13 01:48:24;;;;;;;10.97;6.77;;;8.10;97.20;;;;;;5066050;28;20477;-61
2023/04/13 01:50:54;;;;;;;13.27;7.13;;;8.10;97.40;;;;;;5089737;28;20767;-60
2023/04/13 01:53:29;;;;;;;9.57;4.77;;;8.00;97.30;;;;;;5073402;28;20492;-61
2023/04/13 01:55:56;;;;;;;16.43;8.10;;;8.10;97.70;;;;;;5083699;28;20980;-61
2023/04/13 01:58:26;;;;;;;8.50;5.13;;;8.10;97.50;;;;;;5075647;28;20502;-60
2023/04/13 02:00:55;;;;;;;9.23;5.43;;;8.20;97.60;;;;;;5070376;28;20518;-61
2023/04/13 02:03:22;;;;;;;16.57;5.40;;;8.20;97.60;;;;;;5059688;28;20482;-61
2023/04/13 02:05:50;;;;;;;11.70;5.37;;;8.00;97.60;;;;;;5085028;28;20487;-61
2023/04/13 02:08:19;;;;;;;8.13;5.30;;;8.10;97.90;;;;;;5091483;28;20479;-61
2023/04/13 02:10:46;;;;;;;11.17;5.10;;;8.10;97.60;;;;;;5081302;28;20476;-60
2023/04/13 02:13:12;;;;;;;4.77;3.63;;;8.10;97.60;;;;;;5067711;28;20477;-61
2023/04/13 02:15:40;;;;;;;5.20;3.73;;;8.10;97.50;;;;;;5073831;28;21029;-60
2023/04/13 02:18:09;;;;;;;6.80;4.37;;;8.20;97.50;;;;;;5084837;28;20473;-60
2023/04/13 02:20:42;;;;;;;10.57;5.70;;;8.10;97.50;;;;;;5073296;28;20576;-61
2023/04/13 02:23:09;;;;;;;24.03;3.93;;;8.00;97.60;;;;;;5063201;28;20552;-61
2023/04/13 02:25:36;;;;;;;12.73;5.73;;;8.10;97.50;;;;;;5059831;28;20477;-61
2023/04/13 02:28:03;;;;;;;12.03;7.60;;;8.00;97.80;;;;;;5077771;28;20470;-61
2023/04/13 02:30:30;;;;;;;9.20;5.13;;;8.00;98.20;;;;;;5036691;28;20482;-60
2023/04/13 02:32:57;;;;;;;12.60;6.50;;;9.00;98.20;;;;;;5071941;28;20839;-61
2023/04/13 02:35:26;;;;;;;17.80;6.97;;;8.00;97.90;;;;;;5087179;28;20607;-61
2023/04/13 02:37:53;;;;;;;20.00;7.50;;;8.10;98.10;;;;;;5079000;28;20482;-60
2023/04/13 02:40:19;;;;;;;13.20;5.37;;;8.00;98.10;;;;;;5084644;28;20502;-61
2023/04/13 02:42:47;;;;;;;10.83;5.30;;;7.80;97.60;;;;;;5083902;28;20791;-60
2023/04/13 02:45:16;;;;;;;5.97;3.40;;;7.90;98.00;;;;;;5074479;28;20481;-61
2023/04/13 02:47:43;;;;;;;12.97;6.03;;;8.00;98.10;;;;;;5081151;28;20477;-60
2023/04/13 02:50:10;;;;;;;10.13;5.43;;;;;;;;;;5072750;28;20466;-61
2023/04/13 02:52:38;;;;;;;18.07;4.73;;;7.90;98.20;;;;;;5062181;28;20462;-61
2023/04/13 02:55:06;;;;;;;15.83;7.30;;;7.70;97.90;;;;;;5076305;28;20481;-61
2023/04/13 02:57:34;;;;;;;13.37;6.37;;;7.70;98.10;;;;;;5066887;28;20932;-61
2023/04/13 03:00:01;;;;;;;18.43;6.23;;;7.80;98.10;;;;;;5068726;28;20543;-61
2023/04/13 03:02:28;;;;;;;7.30;3.97;;;7.70;98.00;;;;;;5072525;28;20498;-61
2023/04/13 03:04:55;;;;;;;21.60;10.53;;;7.60;98.00;;;;;;5062222;28;20475;-60
2023/04/13 03:07:23;;;;;;;12.03;4.57;;;7.60;98.00;;;;;;5048666;28;20570;-61
2023/04/13 03:09:51;;;;;;;6.10;4.07;;;7.60;98.20;;;;;;5075828;28;20672;-61
2023/04/13 03:12:18;;;;;;;7.37;4.87;;;7.60;98.00;;;;;;5086823;28;21177;-60
2023/04/13 03:14:45;;;;;;;16.27;5.27;;;7.80;97.90;;;;;;5071958;28;20467;-61
2023/04/13 03:17:12;;;;;;;5.70;3.77;;;7.70;98.00;;;;;;5071566;28;20473;-60
2023/04/13 03:19:39;;;;;;;7.43;3.70;;;7.70;97.80;;;;;;5081413;28;20573;-60
2023/04/13 03:22:07;;;;;;;13.03;4.47;;;7.60;98.00;;;;;;5079469;28;20879;-61
2023/04/13 03:24:34;;;;;;;12.97;7.60;;;7.70;98.30;;;;;;5053255;28;20501;-60
2023/04/13 03:27:02;;;;;;;13.67;7.60;;;7.70;97.90;;;;;;5084132;28;20477;-61
2023/04/13 03:29:29;;;;;;;15.20;4.93;;;7.60;98.20;;;;;;5077184;28;20500;-60
2023/04/13 03:31:56;;;;;;;18.47;9.37;;;7.70;98.50;;;;;;5086770;28;20461;-60
2023/04/13 03:34:23;;;;;;;9.83;7.70;;;7.70;98.10;;;;;;5077162;28;20509;-60
2023/04/13 03:36:50;;;;;;;14.20;5.10;;;7.60;97.90;;;;;;5051899;28;20469;-61
2023/04/13 03:39:16;;;;;;;20.37;4.80;;;7.60;97.70;;;;;;5075758;28;20848;-61
2023/04/13 03:41:43;;;;;;;8.83;5.43;;;7.50;97.70;;;;;;5075060;28;20545;-60
2023/04/13 03:44:11;;;;;;;11.73;3.73;;;7.50;98.00;;;;;;5067334;28;20861;-60
2023/04/13 03:46:38;;;;;;;15.60;7.10;;;7.50;98.10;;;;;;5063366;28;20529;-61
2023/04/13 03:49:08;;;;;;;17.37;6.47;;;7.50;98.00;;;;;;5061581;28;20486;-61
2023/04/13 03:51:36;;;;;;;36.57;7.27;;;7.40;97.80;;;;;;5056176;28;20472;-61
2023/04/13 03:54:03;;;;;;;13.80;7.70;;;7.50;98.00;;;;;;5073829;28;21072;-60
2023/04/13 03:56:30;;;;;;;11.93;5.23;;;7.50;98.00;;;;;;5061755;28;20549;-61
2023/04/13 03:58:56;;;;;;;19.20;7.50;;;7.50;97.90;;;;;;5071808;28;20474;-60
2023/04/13 04:01:25;;;;;;;20.00;6.10;;;7.50;98.00;;;;;;5050122;28;20490;-60
2023/04/13 04:03:55;;;;;;;13.67;5.73;;;7.30;98.10;;;;;;5068306;28;20525;-61
2023/04/13 04:06:23;;;;;;;9.80;6.03;;;7.30;98.10;;;;;;5060555;28;20590;-60
2023/04/13 04:08:50;;;;;;;12.87;5.93;;;7.20;98.30;;;;;;5049341;28;20857;-60
2023/04/13 04:11:17;;;;;;;10.13;5.10;;;7.20;98.20;;;;;;5054225;28;20463;-61
2023/04/13 04:13:43;;;;;;;17.67;7.83;;;7.20;98.10;;;;;;5069480;28;20494;-60
2023/04/13 04:16:11;;;;;;;12.30;4.70;;;7.30;98.30;;;;;;5065866;28;21033;-61
2023/04/13 04:18:39;;;;;;;14.63;5.57;;;7.10;98.20;;;;;;5047921;28;20489;-60
2023/04/13 04:21:06;;;;;;;15.07;7.83;;;7.00;98.30;;;;;;5055099;28;20479;-60
2023/04/13 04:23:36;;;;;;;9.77;5.60;;;6.90;98.50;;;;;;5029242;28;20514;-61
2023/04/13 04:26:04;;;;;;;33.87;8.43;;;6.90;98.70;;;;;;5049028;28;20487;-60
2023/04/13 04:28:31;;;;;;;12.70;4.40;;;6.90;98.80;;;;;;5054149;28;21069;-60
2023/04/13 04:31:00;;;;;;;15.33;7.17;;;6.90;98.80;;;;;;5043027;28;20983;-61
2023/04/13 04:33:27;;;;;;;19.00;4.97;;;6.90;99.00;;;;;;5053507;28;20660;-60
2023/04/13 04:35:55;;;;;;;17.23;8.40;;;6.90;98.90;;;;;;5036669;28;20681;-61
2023/04/13 04:38:22;;;;;;;13.30;5.67;;;6.80;98.90;;;;;;5033311;28;20795;-60
2023/04/13 04:40:56;;;;;;;16.30;5.63;;;7.00;99.00;;;;;;5074651;28;20498;-60
2023/04/13 04:43:24;;;;;;;18.20;6.43;;;6.90;99.00;;;;;;5055883;28;20498;-60
2023/04/13 04:45:51;;;;;;;16.37;7.60;;;6.90;99.00;;;;;;5061501;28;20535;-60
2023/04/13 04:48:19;;;;;;;12.97;4.80;;;7.00;99.00;;;;;;5052373;28;20506;-61
2023/04/13 04:50:46;;;;;;;12.97;5.47;;;6.90;99.00;;;;;;5055703;28;20506;-60
2023/04/13 04:53:14;;;;;;;10.40;5.47;;;6.80;99.20;;;;;;5035319;28;20474;-60
2023/04/13 04:55:40;;;;;;;19.10;5.67;;;6.80;99.30;;;;;;5043737;28;20490;-60
2023/04/13 04:58:07;;;;;;;22.70;6.03;;;6.80;99.30;;;;;;5064207;28;20486;-60
2023/04/13 05:00:34;;;;;;;16.43;5.23;;;6.80;99.30;;;;;;5067344;28;20882;-60
2023/04/13 05:03:01;;;;;;;14.53;7.83;;;6.80;99.40;;;;;;5052171;28;20555;-60
2023/04/13 05:05:29;;;;;;;10.90;5.60;;;6.80;99.40;;;;;;5072238;28;20957;-60
2023/04/13 05:07:55;;;;;;;19.70;7.53;;;6.80;99.50;;;;;;5079092;28;20490;-61
2023/04/13 05:10:27;;;;;;;9.07;4.00;;;6.80;99.50;;;;;;5079601;28;20838;-60
2023/04/13 05:12:53;;;;;;;18.43;7.10;;;6.80;99.60;;;;;;5050389;28;20568;-60
2023/04/13 05:15:20;;;;;;;20.97;6.13;;;6.90;99.70;;;;;;5058538;28;20498;-60
2023/04/13 05:17:49;;;;;;;7.60;4.30;;;6.90;99.60;;;;;;5069028;28;20931;-60
2023/04/13 05:20:18;;;;;;;20.67;6.67;;;6.90;99.70;;;;;;5069604;28;20466;-61
2023/04/13 05:22:45;;;;;;;21.93;6.43;;;6.90;99.70;;;;;;5041707;28;20478;-60
2023/04/13 05:25:13;;;;;;;15.37;5.80;;;7.00;99.90;;;;;;5064365;28;20483;-60
2023/04/13 05:27:41;;;;;;;16.23;5.97;;;7.10;99.90;;;;;;5074946;28;20529;-61
2023/04/13 05:30:09;;;;;;;18.97;5.67;;;7.10;99.90;;;;;;5077745;28;20478;-61
2023/04/13 05:32:36;;;;;;;20.33;6.30;;;7.20;99.90;;;;;;5063255;28;20462;-60
2023/04/13 05:35:04;;;;;;;15.20;7.03;;;7.20;99.90;;;;;;5049272;28;20492;-60
2023/04/13 05:37:31;;;;;;;18.00;4.60;;;7.20;99.90;;;;;;5057729;28;20575;-60
2023/04/13 05:39:58;;;;;;;31.27;11.20;;;7.20;99.90;;;;;;5058412;28;20961;-60
2023/04/13 05:42:25;;;;;;;16.23;6.17;;;7.20;99.90;;;;;;5044354;28;20487;-61
2023/04/13 05:44:53;;;;;;;22.57;7.13;;;7.10;99.90;;;;;;5055332;28;21092;-60
2023/04/13 05:47:22;;;;;;;16.07;6.77;;;7.20;99.90;;;;;;5035302;28;20482;-61
2023/04/13 05:49:49;;;;;;;15.53;6.87;;;7.20;99.90;;;;;;5057400;28;21087;-60
2023/04/13 05:52:15;;;;;;;13.47;4.13;;;7.30;99.90;;;;;;5056199;28;20474;-60
2023/04/13 05:54:42;;;;;;;15.80;7.10;;;7.20;99.90;;;;;;5028554;28;20474;-60
2023/04/13 05:57:09;;;;;;;15.67;6.70;;;7.10;99.90;;;;;;5071811;28;20474;-61
2023/04/13 05:59:35;;;;;;;21.90;5.90;;;7.20;99.90;;;;;;5054439;28;21221;-61
2023/04/13 06:02:04;;;;;;;26.93;8.60;;;7.20;99.90;;;;;;5067420;28;20479;-60
2023/04/13 06:04:31;;;;;;;17.20;5.17;;;7.20;99.90;;;;;;5064061;28;20486;-60
2023/04/13 06:06:58;;;;;;;34.67;11.77;;;7.10;99.90;;;;;;5045874;28;21110;-61
2023/04/13 06:09:26;;;;;;;12.73;5.97;;;7.10;99.90;;;;;;5072474;28;20478;-61
2023/04/13 06:11:53;;;;;;;23.63;9.17;;;7.20;99.90;;;;;;5063158;28;20529;-61
2023/04/13 06:14:21;;;;;;;13.93;5.50;;;7.10;99.90;;;;;;5068419;28;20583;-60
2023/04/13 06:16:54;;;;;;;21.90;8.63;;;7.30;99.90;;;;;;5036777;28;21316;-61
2023/04/13 06:19:23;;;;;;;14.23;5.67;;;7.30;99.90;;;;;;5068615;28;20482;-61
2023/04/13 06:21:50;;;;;;;14.50;5.50;;;7.30;99.90;;;;;;5060021;28;20470;-60
2023/04/13 06:24:17;;;;;;;13.70;5.30;;;7.30;99.90;;;;;;5067026;28;20487;-61
2023/04/13 06:26:44;;;;;;;15.97;5.67;;;7.30;99.90;;;;;;5051910;28;20805;-60
2023/04/13 06:29:11;;;;;;;17.03;6.40;;;7.40;99.90;;;;;;5049677;28;20513;-61
2023/04/13 06:31:37;;;;;;;8.20;4.33;;;7.30;99.90;;;;;;5064117;28;20705;-61
2023/04/13 06:34:04;;;;;;;19.33;7.80;;;7.40;99.90;;;;;;5062830;28;20486;-61
2023/04/13 06:36:32;;;;;;;12.87;6.07;;;7.40;99.90;;;;;;5043592;28;20486;-61
2023/04/13 06:38:59;;;;;;;28.97;10.90;;;7.50;99.90;;;;;;5072559;28;20606;-61
2023/04/13 06:41:26;;;;;;;18.40;6.50;;;7.50;99.90;;;;;;5049923;28;20475;-61
2023/04/13 06:43:53;;;;;;;13.20;6.20;;;7.50;99.90;;;;;;5078034;28;20502;-61
2023/04/13 06:46:20;;;;;;;18.70;5.60;;;7.60;99.90;;;;;;5070524;28;20478;-61
2023/04/13 06:48:46;;;;;;;19.47;6.30;;;7.60;99.90;;;;;;5067124;28;20495;-60
2023/04/13 06:51:13;;;;;;;17.60;4.73;;;7.60;99.90;;;;;;5076085;28;20482;-61
2023/04/13 06:53:41;;;;;;;23.27;5.90;;;7.50;99.90;;;;;;5068164;28;20499;-61
2023/04/13 06:56:08;;;;;;;27.73;6.10;;;7.60;99.90;;;;;;5057821;28;20522;-61
2023/04/13 06:58:35;;;;;;;18.53;6.03;;;7.60;99.90;;;;;;5066100;28;20497;-61
2023/04/13 07:01:02;;;;;;;21.03;6.67;;;7.70;99.90;;;;;;5060522;28;20567;-61
2023/04/13 07:03:29;;;;;;;12.30;5.43;;;7.70;99.90;;;;;;5069697;28;20474;-61
2023/04/13 07:05:55;;;;;;;17.90;7.03;;;7.80;99.90;;;;;;5055859;28;20704;-61
2023/04/13 07:08:22;;;;;;;11.57;5.73;;;7.60;99.90;;;;;;5060115;28;20995;-61
2023/04/13 07:10:54;;;;;;;47.00;9.30;;;7.60;99.90;;;;;;5066266;28;20573;-61
2023/04/13 07:13:21;;;;;;;15.83;7.20;;;7.70;99.90;;;;;;5054319;28;20488;-60
2023/04/13 07:15:47;;;;;;;11.77;5.73;;;7.70;99.90;;;;;;5059693;28;20735;-61
2023/04/13 07:18:14;;;;;;;30.57;5.37;;;7.60;99.90;;;;;;5067558;28;20486;-60
2023/04/13 07:20:41;;;;;;;15.40;7.03;;;7.50;99.90;;;;;;5046211;28;20483;-60
2023/04/13 07:23:09;;;;;;;15.80;7.03;;;7.50;99.90;;;;;;5036181;28;20760;-61
2023/04/13 07:25:36;;;;;;;20.57;6.07;;;7.60;99.90;;;;;;5060987;28;20486;-61
2023/04/13 07:28:04;;;;;;;15.27;7.23;;;7.50;99.90;;;;;;4995214;28;20483;-60
2023/04/13 07:30:31;;;;;;;17.23;7.50;;;7.50;99.90;;;;;;5062258;28;20872;-61
2023/04/13 07:32:58;;;;;;;14.40;6.07;;;7.60;99.90;;;;;;5053627;28;20475;-61
2023/04/13 07:35:24;;;;;;;13.00;6.60;;;7.60;99.90;;;;;;5064199;28;20489;-61
2023/04/13 07:37:54;;;;;;;15.50;6.10;;;7.60;99.90;;;;;;5059048;28;20487;-60
2023/04/13 07:40:20;;;;;;;14.30;4.70;;;7.60;99.90;;;;;;5067649;28;20486;-61
2023/04/13 07:42:50;;;;;;;11.60;5.93;;;7.50;99.90;;;;;;5054261;28;20991;-61
2023/04/13 07:45:19;;;;;;;10.17;4.37;;;7.60;99.90;;;;;;5055667;28;20490;-61
2023/04/13 07:47:46;;;;;;;16.70;4.50;;;7.70;99.90;;;;;;5048555;28;20467;-61
2023/04/13 07:50:13;;;;;;;16.20;5.60;;;7.70;99.90;;;;;;5077559;28;20478;-61
2023/04/13 07:52:40;;;;;;;17.73;8.10;;;7.80;99.90;;;;;;5056794;28;20856;-61
2023/04/13 07:55:08;;;;;;;13.10;5.43;;;7.70;99.90;;;;;;5057121;28;20525;-61
2023/04/13 07:57:37;;;;;;;16.57;6.53;;;7.70;99.90;;;;;;5069646;28;20510;-61
2023/04/13 08:00:05;;;;;;;24.40;9.47;;;7.60;99.90;;;;;;5054889;28;20482;-61
2023/04/13 08:02:33;;;;;;;16.27;6.00;;;7.50;99.90;;;;;;5066107;28;20482;-61
2023/04/13 08:05:00;;;;;;;19.83;9.27;;;7.60;99.90;;;;;;5059479;28;20471;-60
2023/04/13 08:07:28;;;;;;;12.37;5.30;;;7.60;99.90;;;;;;5047450;28;20521;-61
2023/04/13 08:09:55;;;;;;;25.23;9.40;;;7.60;99.90;;;;;;5056058;28;20479;-61
2023/04/13 08:12:22;;;;;;;15.07;5.90;;;7.60;99.90;;;;;;5063903;28;21144;-61
2023/04/13 08:14:49;;;;;;;18.60;7.40;;;7.50;99.90;;;;;;5072487;28;20570;-62
2023/04/13 08:17:15;;;;;;;13.57;5.33;;;7.40;99.90;;;;;;5062280;28;20470;-61
2023/04/13 08:19:44;;;;;;;29.73;9.27;;;7.30;99.90;;;;;;5061553;28;20482;-61
2023/04/13 08:22:11;;;;;;;19.17;5.20;;;7.50;99.90;;;;;;5057800;28;20491;-61
2023/04/13 08:24:37;;;;;;;14.70;6.40;;;7.60;99.90;;;;;;5065969;28;20589;-61
2023/04/13 08:27:06;;;;;;;27.47;10.60;;;7.60;99.90;;;;;;5061612;28;20955;-60
2023/04/13 08:29:33;;;;;;;23.70;7.83;;;7.60;99.90;;;;;;5048770;28;20569;-61
2023/04/13 08:32:00;;;;;;;31.13;11.23;;;7.60;99.90;;;;;;5052489;28;20488;-61
2023/04/13 08:34:27;;;;;;;30.03;7.07;;;7.70;99.90;;;;;;5041739;28;20848;-61
2023/04/13 08:36:55;;;;;;;14.33;5.00;;;7.80;99.90;;;;;;5056774;28;20487;-61
2023/04/13 08:39:22;;;;;;;17.67;8.00;;;7.80;99.90;;;;;;5065746;28;21021;-60
2023/04/13 08:41:49;;;;;;;9.47;4.63;;;7.90;99.90;;;;;;5059723;28;20479;-60
2023/04/13 08:44:16;;;;;;;29.10;8.80;;;7.90;99.90;;;;;;5053261;28;20486;-61
2023/04/13 08:46:51;;;;;;;23.73;8.30;;;7.90;99.90;;;;;;5063769;28;20583;-60
2023/04/13 08:49:18;;;;;;;22.77;8.83;;;7.90;99.90;;;;;;5061394;28;20499;-61
2023/04/13 08:51:46;;;;;;;11.83;3.87;;;8.00;99.90;;;;;;5074307;28;20838;-61
2023/04/13 08:54:15;;;;;;;12.97;4.97;;;8.00;99.90;;;;;;5065469;28;20573;-61
2023/04/13 08:56:45;;;;;;;14.33;5.60;;;8.10;99.90;;;;;;5057116;28;20482;-61
2023/04/13 08:59:14;;;;;;;20.37;5.60;;;8.10;99.90;;;;;;5052797;28;20518;-61
2023/04/13 09:01:41;;;;;;;25.07;8.10;;;8.10;99.90;;;;;;5057547;28;20576;-60
2023/04/13 09:04:10;;;;;;;13.53;5.60;;;8.10;99.90;;;;;;5062891;28;20933;-61
2023/04/13 09:06:39;;;;;;;16.07;6.20;;;8.20;99.90;;;;;;5045549;28;20553;-60
2023/04/13 09:09:09;;;;;;;18.50;7.30;;;8.30;99.90;;;;;;5058135;28;20485;-60
2023/04/13 09:11:38;;;;;;;21.80;7.00;;;8.30;99.90;;;;;;5056816;28;21001;-60
2023/04/13 09:14:04;;;;;;;16.83;7.07;;;8.40;99.90;;;;;;5073827;28;20490;-60
2023/04/13 09:16:39;;;;;;;16.60;5.43;;;8.30;99.90;;;;;;5075527;28;21015;-60
2023/04/13 09:19:07;;;;;;;21.90;7.97;;;8.30;99.90;;;;;;5045105;28;20482;-60
2023/04/13 09:21:37;;;;;;;18.63;5.87;;;8.40;99.90;;;;;;5055516;28;20486;-61
2023/04/13 09:24:06;;;;;;;21.60;7.90;;;8.50;99.90;;;;;;5064157;28;20474;-61
2023/04/13 09:26:41;;;;;;;20.17;6.37;;;8.50;99.90;;;;;;5069428;28;20480;-61
2023/04/13 09:29:11;;;;;;;14.97;5.23;;;8.50;99.90;;;;;;5048159;28;20479;-61
2023/04/13 09:31:39;;;;;;;17.60;7.40;;;8.40;99.90;;;;;;5054177;28;20840;-61
2023/04/13 09:34:06;;;;;;;28.63;9.10;;;8.40;99.90;;;;;;5050493;28;20484;-61
2023/04/13 09:36:34;;;;;;;22.53;5.37;;;8.40;99.90;;;;;;5044672;28;20500;-61
2023/04/13 09:39:01;;;;;;;29.37;8.00;;;8.50;99.90;;;;;;5070249;28;20497;-61
2023/04/13 09:41:29;;;;;;;19.70;7.10;;;8.50;99.90;;;;;;5073873;28;20486;-60
2023/04/13 09:43:57;;;;;;;26.17;9.40;;;8.50;99.90;;;;;;5054069;28;20536;-60
2023/04/13 09:46:24;;;;;;;13.83;7.17;;;8.60;99.90;;;;;;5064922;28;20493;-61
2023/04/13 09:48:58;;;;;;;21.13;9.00;;;8.50;99.90;;;;;;5069278;28;20551;-61
2023/04/13 09:51:26;;;;;;;20.03;6.23;;;8.60;99.90;;;;;;5054157;28;20481;-61
2023/04/13 09:53:54;;;;;;;10.40;5.40;;;8.60;99.90;;;;;;5038159;28;21041;-61
2023/04/13 09:56:23;;;;;;;21.77;8.20;;;8.60;99.90;;;;;;5032504;28;20542;-61
2023/04/13 09:58:50;;;;;;;10.20;4.73;;;8.60;99.90;;;;;;5051880;28;20486;-60
2023/04/13 10:01:18;;;;;;;16.20;6.00;;;8.60;99.90;;;;;;5073646;28;20490;-61
2023/04/13 10:03:45;;;;;;;6.33;4.23;;;8.70;99.90;;;;;;5078859;28;20489;-61
2023/04/13 10:06:12;;;;;;;11.37;5.43;;;8.60;99.90;;;;;;5060157;28;21006;-61
2023/04/13 10:08:40;;;;;;;16.23;7.80;;;8.70;99.90;;;;;;5053589;28;20470;-61
2023/04/13 10:11:11;;;;;;;10.57;4.27;;;8.80;99.90;;;;;;5074663;28;20486;-62
2023/04/13 10:13:45;;;;;;;20.63;5.63;;;8.80;99.90;;;;;;5062441;28;20579;-60
2023/04/13 10:16:36;;;;;;;20.13;6.40;;;8.90;99.90;;;;;;5059790;28;20479;-61
2023/04/13 10:19:09;;;;;;;17.77;7.93;;;9.00;99.90;;;;;;5085389;28;20573;-61
2023/04/13 10:21:39;;;;;;;15.70;6.70;;;9.00;99.90;;;;;;5081045;28;20981;-61
2023/04/13 10:24:08;;;;;;;24.27;6.50;;;9.10;99.90;;;;;;5073090;28;20475;-61
2023/04/13 10:26:36;;;;;;;21.67;6.03;;;9.20;99.90;;;;;;5072133;28;20485;-61
2023/04/13 10:29:04;;;;;;;20.93;8.20;;;9.40;99.90;;;;;;5076745;28;21258;-61
2023/04/13 10:31:38;;;;;;;8.03;4.33;;;9.60;99.90;;;;;;5064600;28;21097;-60
2023/04/13 10:34:06;;;;;;;21.20;7.33;;;9.80;99.90;;;;;;5068485;28;20479;-60
2023/04/13 10:36:38;;;;;;;26.97;6.30;;;9.90;99.90;;;;;;5078246;28;20481;-61
2023/04/13 10:39:05;;;;;;;17.37;6.70;;;9.80;99.90;;;;;;5063166;28;20492;-61
2023/04/13 10:41:32;;;;;;;15.23;6.60;;;9.70;99.90;;;;;;5079107;28;20478;-61
2023/04/13 10:44:04;;;;;;;27.23;8.13;;;9.80;99.90;;;;;;5078403;28;21024;-61
2023/04/13 10:46:32;;;;;;;25.77;6.63;;;9.80;99.90;;;;;;5076339;28;20490;-61
2023/04/13 10:49:00;;;;;;;30.23;11.40;;;9.80;99.90;;;;;;5073111;28;20482;-61
2023/04/13 10:51:38;;;;;;;17.40;5.00;;;10.00;99.90;;;;;;5059882;28;20521;-61
2023/04/13 10:54:06;;;;;;;26.20;7.47;;;10.00;99.90;;;;;;5072685;28;20478;-61
2023/04/13 10:56:32;;;;;;;14.70;5.00;;;10.30;99.90;;;;;;5062857;28;20496;-61
2023/04/13 10:58:59;;;;;;;22.93;9.20;;;10.40;99.90;;;;;;5083616;28;20479;-61
2023/04/13 11:01:26;;;;;;;14.87;5.07;;;10.40;99.90;;;;;;5068367;28;20495;-61
2023/04/13 11:03:53;;;;;;;24.63;6.23;;;10.40;99.90;;;;;;5075146;28;20483;-61
2023/04/13 11:06:21;;;;;;;10.83;5.33;;;10.50;99.90;;;;;;5059694;28;20479;-61
2023/04/13 11:08:49;;;;;;;17.87;6.63;;;10.60;99.90;;;;;;5062013;28;20543;-61
2023/04/13 11:11:24;;;;;;;13.10;4.90;;;10.70;99.80;;;;;;5074639;28;20486;-61
2023/04/13 11:13:51;;;;;;;14.37;7.50;;;10.60;99.30;;;;;;5072557;28;20548;-61
2023/04/13 11:16:18;;;;;;;17.53;6.10;;;10.70;98.70;;;;;;5071929;28;20482;-61
2023/04/13 11:18:45;;;;;;;13.83;4.80;;;11.20;99.70;;;;;;5080470;28;20489;-60
2023/04/13 11:21:15;;;;;;;15.20;6.83;;;11.50;99.30;;;;;;5078449;28;20869;-61
2023/04/13 11:23:42;;;;;;;12.20;5.70;;;11.80;99.10;;;;;;5079914;28;20567;-61
2023/04/13 11:26:11;;;;;;;10.97;3.30;;;12.30;99.30;;;;;;5074937;28;20982;-61
2023/04/13 11:28:40;;;;;;;13.10;5.37;;;12.40;96.50;;;;;;5060517;28;20984;-62
2023/04/13 11:31:07;;;;;;;17.87;6.17;;;12.50;96.50;;;;;;5082504;28;20474;-61
2023/04/13 11:33:34;;;;;;;7.87;4.87;;;12.70;96.50;;;;;;5068644;28;20478;-61
2023/04/13 11:36:02;;;;;;;13.70;6.87;;;12.80;95.90;;;;;;5084922;28;20610;-61
2023/04/13 11:38:31;;;;;;;14.93;5.10;;;;;;;;;;5079268;28;20962;-61
2023/04/13 11:41:01;;;;;;;14.80;7.87;;;12.90;94.20;;;;;;5063531;28;20463;-61
2023/04/13 11:43:30;;;;;;;11.47;4.77;;;13.00;92.70;;;;;;5052568;28;20988;-61
2023/04/13 11:45:57;;;;;;;27.60;6.07;;;13.00;91.90;;;;;;5068498;28;20482;-61
2023/04/13 11:48:25;;;;;;;9.73;6.60;;;13.00;91.30;;;;;;5077396;28;20481;-62
2023/04/13 11:50:52;;;;;;;14.80;6.20;;;13.00;92.90;;;;;;5070326;28;20481;-61
2023/04/13 11:53:19;;;;;;;12.10;4.67;;;13.10;92.80;;;;;;5075732;28;20482;-61
2023/04/13 11:55:46;;;;;;;11.73;4.90;;;12.80;92.30;;;;;;5074362;28;20485;-61
2023/04/13 11:58:17;;;;;;;17.70;6.30;;;12.80;91.70;;;;;;5096254;28;20515;-61
2023/04/13 12:00:47;;;;;;;13.63;4.50;;;12.60;90.70;;;;;;5070755;28;20512;-61
2023/04/13 12:03:16;;;;;;;8.67;4.80;;;12.70;91.10;;;;;;5068832;28;20487;-61
2023/04/13 12:05:43;;;;;;;6.57;4.13;;;12.60;90.70;;;;;;5058582;28;20945;-61
2023/04/13 12:08:21;;;;;;;15.60;4.10;;;12.90;90.90;;;;;;5059802;28;20482;-61
2023/04/13 12:10:56;;;;;;;12.60;7.03;;;13.10;90.90;;;;;;5062835;28;20563;-62
2023/04/13 12:13:23;;;;;;;9.90;4.07;;;13.20;90.40;;;;;;5059022;28;20485;-61
2023/04/13 12:15:51;;;;;;;12.40;5.20;;;13.30;91.00;;;;;;5072667;28;20495;-61
2023/04/13 12:18:19;;;;;;;19.03;8.17;;;13.30;90.80;;;;;;5071707;28;20962;-61
2023/04/13 12:20:47;;;;;;;21.80;5.97;;;13.40;90.60;;;;;;5062059;28;20509;-61
2023/04/13 12:23:19;;;;;;;15.83;5.73;;;13.20;89.70;;;;;;5063529;28;20573;-61
2023/04/13 12:25:56;;;;;;;12.80;5.37;;;13.10;88.30;;;;;;5066794;28;20481;-61
2023/04/13 12:28:28;;;;;;;21.43;8.47;;;13.10;89.50;;;;;;5066143;28;20481;-62
2023/04/13 12:31:01;;;;;;;27.43;11.07;;;13.10;88.00;;;;;;5044753;28;20478;-61
2023/04/13 12:33:28;;;;;;;13.00;5.40;;;;;;;;;;5054327;28;20488;-61
2023/04/13 12:35:55;;;;;;;32.47;10.53;;;13.00;86.70;;;;;;5062063;28;20482;-61
2023/04/13 12:38:22;;;;;;;29.03;9.17;;;13.20;90.10;;;;;;5071272;28;20526;-62
2023/04/13 12:40:49;;;;;;;23.27;7.97;;;13.20;90.10;;;;;;5066793;28;20904;-61
2023/04/13 12:43:15;;;;;;;12.60;5.30;;;13.20;90.00;;;;;;5073920;28;20494;-61
2023/04/13 12:45:42;;;;;;;22.20;5.37;;;13.30;91.40;;;;;;5048633;28;20478;-62
2023/04/13 12:48:10;;;;;;;21.23;7.10;;;13.30;90.80;;;;;;5047952;28;20504;-61
2023/04/13 12:50:37;;;;;;;26.03;7.53;;;13.10;91.70;;;;;;5055580;28;20470;-61
2023/04/13 12:53:04;;;;;;;26.70;9.30;;;12.50;91.00;;;;;;5065871;28;21375;-62